createdAt,value
2022-09-23T00:03:21.576Z,78.78
2022-09-23T00:06:44.108Z,79.00
2022-09-23T00:10:07.268Z,79.00
2022-09-23T00:13:29.915Z,79.06
2022-09-23T00:16:51.545Z,79.44
2022-09-23T00:20:13.328Z,79.20
2022-09-23T00:23:35.221Z,79.08
2022-09-23T00:26:56.727Z,79.29
2022-09-23T00:30:19.469Z,79.55
2022-09-23T00:33:41.526Z,79.68
2022-09-23T00:37:02.730Z,79.90
2022-09-23T00:40:23.923Z,79.73
2022-09-23T00:43:47.403Z,79.85
2022-09-23T00:47:15.143Z,79.88
2022-09-23T00:50:38.755Z,80.29
2022-09-23T00:54:00.616Z,80.24
2022-09-23T00:57:22.978Z,79.91
2022-09-23T01:00:46.394Z,79.62
2022-09-23T01:04:09.869Z,79.73
2022-09-23T01:07:31.509Z,79.88
2022-09-23T01:11:01.442Z,79.76
2022-09-23T01:14:35.039Z,79.56
2022-09-23T01:18:09.028Z,79.39
2022-09-23T01:21:43.452Z,79.48
2022-09-23T01:25:34.975Z,79.52
2022-09-23T01:29:20.087Z,79.43
2022-09-23T01:32:56.717Z,79.66
2022-09-23T01:36:25.015Z,79.98
2022-09-23T01:39:58.128Z,79.54
2022-09-23T01:43:26.091Z,79.57
2022-09-23T01:46:51.635Z,80.12
2022-09-23T01:50:36.643Z,79.12
2022-09-23T01:54:07.101Z,79.56
2022-09-23T01:57:31.873Z,80.23
2022-09-23T02:00:59.421Z,79.91
2022-09-23T02:04:26.873Z,79.67
2022-09-23T02:07:55.172Z,79.46
2022-09-23T02:11:18.161Z,79.69
2022-09-23T02:14:43.882Z,79.98
2022-09-23T02:18:10.926Z,80.09
2022-09-23T02:21:36.719Z,80.13
2022-09-23T02:24:59.600Z,80.16
2022-09-23T02:28:26.647Z,79.66
2022-09-23T02:31:56.650Z,80.31
2022-09-23T02:35:25.539Z,80.25
2022-09-23T02:38:53.616Z,80.21
2022-09-23T02:42:21.704Z,80.17
2022-09-23T02:45:43.654Z,80.27
2022-09-23T02:49:11.176Z,80.63
2022-09-23T02:52:33.490Z,80.67
2022-09-23T02:55:55.041Z,80.39
2022-09-23T02:59:20.078Z,80.47
2022-09-23T03:03:00.981Z,80.65
2022-09-23T03:06:30.398Z,80.78
2022-09-23T03:09:58.467Z,80.31
2022-09-23T03:13:29.960Z,80.88
2022-09-23T03:17:00.449Z,80.13
2022-09-23T03:20:28.231Z,80.05
2022-09-23T03:23:51.386Z,79.82
2022-09-23T03:27:17.838Z,80.31
2022-09-23T03:30:42.180Z,80.18
2022-09-23T03:34:10.478Z,80.89
2022-09-23T03:37:34.909Z,80.90
2022-09-23T03:40:59.328Z,80.81
2022-09-23T03:44:23.512Z,80.73
2022-09-23T03:47:45.564Z,80.75
2022-09-23T03:51:22.111Z,80.26
2022-09-23T03:54:43.407Z,80.80
2022-09-23T03:58:05.283Z,80.11
2022-09-23T04:01:27.198Z,80.36
2022-09-23T04:04:49.175Z,80.29
2022-09-23T04:08:12.107Z,80.56
2022-09-23T04:11:33.700Z,80.85
2022-09-23T04:14:55.186Z,80.81
2022-09-23T04:18:16.614Z,80.38
2022-09-23T04:21:37.982Z,80.71
2022-09-23T04:25:00.563Z,80.55
2022-09-23T04:28:22.627Z,80.31
2022-09-23T04:31:44.163Z,80.89
2022-09-23T04:35:07.979Z,80.69
2022-09-23T04:38:29.276Z,80.68
2022-09-23T04:41:51.849Z,80.10
2022-09-23T04:45:13.133Z,80.02
2022-09-23T04:48:35.084Z,79.67
2022-09-23T04:51:56.860Z,80.70
2022-09-23T04:55:18.287Z,80.04
2022-09-23T04:58:41.430Z,80.13
2022-09-23T05:02:02.942Z,80.51
2022-09-23T05:05:24.758Z,80.96
2022-09-23T05:08:48.912Z,80.54
2022-09-23T05:12:10.260Z,80.94
2022-09-23T05:15:32.845Z,81.11
2022-09-23T05:18:55.279Z,80.17
2022-09-23T05:22:16.368Z,80.07
2022-09-23T05:25:38.500Z,79.84
2022-09-23T05:29:00.730Z,80.27
2022-09-23T05:32:23.884Z,80.25
2022-09-23T05:35:48.399Z,80.73
2022-09-23T05:39:09.936Z,80.81
2022-09-23T05:42:31.975Z,80.67
2022-09-23T05:46:05.872Z,80.93
2022-09-23T05:49:55.362Z,80.67
2022-09-23T05:53:12.254Z,80.91
2022-09-23T05:56:35.300Z,80.79
2022-09-23T05:59:56.714Z,80.95
2022-09-23T06:03:20.125Z,81.61
2022-09-23T06:06:44.064Z,82.05
2022-09-23T06:10:06.921Z,81.92
2022-09-23T06:13:28.153Z,82.15
2022-09-23T06:16:49.451Z,81.69
2022-09-23T06:20:11.293Z,80.70
2022-09-23T06:23:37.499Z,80.86
2022-09-23T06:27:02.516Z,80.71
2022-09-23T06:30:24.730Z,81.79
2022-09-23T06:33:46.958Z,82.21
2022-09-23T06:37:17.284Z,82.42
2022-09-23T06:40:42.626Z,82.70
2022-09-23T06:44:04.721Z,82.79
2022-09-23T06:47:26.197Z,82.71
2022-09-23T06:50:48.376Z,82.58
2022-09-23T06:54:11.006Z,82.26
2022-09-23T06:57:34.627Z,82.69
2022-09-23T07:01:02.184Z,82.55
2022-09-23T07:04:28.619Z,82.40
2022-09-23T07:07:51.175Z,82.36
2022-09-23T07:11:13.327Z,82.69
2022-09-23T07:14:36.649Z,83.31
2022-09-23T07:17:58.604Z,83.78
2022-09-23T07:21:20.706Z,84.15
2022-09-23T07:24:42.310Z,84.16
2022-09-23T07:28:03.660Z,84.80
2022-09-23T07:31:38.722Z,85.03
2022-09-23T07:35:01.076Z,85.29
2022-09-23T07:38:30.202Z,85.47
2022-09-23T07:41:52.072Z,85.47
2022-09-23T07:45:13.383Z,85.86
2022-09-23T07:48:36.507Z,85.37
2022-09-23T07:51:58.152Z,84.99
2022-09-23T07:55:21.085Z,85.16
2022-09-23T07:58:43.198Z,85.16
2022-09-23T08:02:05.260Z,85.04
2022-09-23T08:05:28.938Z,84.79
2022-09-23T08:08:53.323Z,84.40
2022-09-23T08:12:19.974Z,84.63
2022-09-23T08:15:44.160Z,83.87
2022-09-23T08:22:33.751Z,83.35
2022-09-23T08:26:00.430Z,83.04
2022-09-23T08:29:24.055Z,83.18
2022-09-23T08:32:46.068Z,82.89
2022-09-23T08:36:08.925Z,83.26
2022-09-23T08:39:32.007Z,82.93
2022-09-23T08:42:53.533Z,83.28
2022-09-23T08:46:22.566Z,82.30
2022-09-23T08:49:55.001Z,81.54
2022-09-23T08:53:24.626Z,82.18
2022-09-23T08:56:52.180Z,82.03
2022-09-23T09:00:21.319Z,81.30
2022-09-23T09:03:47.849Z,80.88
2022-09-23T09:07:35.869Z,80.87
2022-09-23T09:10:58.803Z,79.97
2022-09-23T09:14:27.447Z,79.27
2022-09-23T09:18:01.279Z,80.17
2022-09-23T09:21:27.525Z,79.59
2022-09-23T09:24:50.698Z,74.97
2022-09-23T09:28:19.886Z,72.73
2022-09-23T09:31:45.529Z,73.00
2022-09-23T09:35:20.115Z,74.03
2022-09-23T09:38:41.431Z,73.86
2022-09-23T09:42:04.721Z,72.35
2022-09-23T09:45:40.874Z,71.68
2022-09-23T09:49:11.311Z,72.42
2022-09-23T09:52:33.035Z,70.07
2022-09-23T09:56:05.298Z,67.33
2022-09-23T09:59:29.674Z,64.20
2022-09-23T10:02:54.003Z,63.07
2022-09-23T10:06:20.912Z,62.19
2022-09-23T10:09:50.059Z,62.13
2022-09-23T10:13:16.402Z,61.62
2022-09-23T10:16:37.916Z,59.68
2022-09-23T10:20:02.230Z,58.68
2022-09-23T10:23:29.699Z,58.89
2022-09-23T10:26:58.188Z,57.29
2022-09-23T10:30:24.950Z,58.03
2022-09-23T10:33:50.035Z,56.50
2022-09-23T10:37:18.114Z,55.09
2022-09-23T10:41:01.718Z,55.66
2022-09-23T10:44:54.128Z,52.70
2022-09-23T10:48:27.212Z,53.43
2022-09-23T10:51:56.087Z,52.10
2022-09-23T10:55:28.813Z,52.23
2022-09-23T10:59:27.168Z,51.19
2022-09-23T11:03:20.219Z,52.73
2022-09-23T11:06:53.098Z,50.87
2022-09-23T11:10:46.103Z,51.00
2022-09-23T11:14:28.821Z,50.60
2022-09-23T11:18:40.200Z,49.72
2022-09-23T11:22:20.285Z,50.05
2022-09-23T11:25:52.151Z,50.99
2022-09-23T11:29:43.453Z,49.80
2022-09-23T11:33:27.751Z,48.60
2022-09-23T11:36:54.749Z,48.10
2022-09-23T11:40:20.156Z,47.64
2022-09-23T11:43:43.288Z,47.55
2022-09-23T11:47:09.613Z,46.50
2022-09-23T11:50:36.068Z,47.06
2022-09-23T11:54:02.682Z,48.25
2022-09-23T11:57:44.866Z,46.71
2022-09-23T12:01:23.615Z,47.14
2022-09-23T12:04:58.812Z,47.85
2022-09-23T12:08:29.272Z,47.31
2022-09-23T12:12:00.544Z,45.89
2022-09-23T12:15:52.592Z,45.75
2022-09-23T12:19:30.931Z,44.83
2022-09-23T12:23:07.303Z,45.05
2022-09-23T12:26:29.676Z,45.46
2022-09-23T12:29:57.632Z,44.82
2022-09-23T12:33:26.499Z,44.48
2022-09-23T12:36:48.299Z,45.16
2022-09-23T12:40:31.094Z,45.23
2022-09-23T12:43:55.421Z,45.95
2022-09-23T12:47:39.814Z,43.04
2022-09-23T12:51:16.527Z,42.83
2022-09-23T12:54:39.191Z,44.61
2022-09-23T12:58:02.092Z,44.67
2022-09-23T13:01:26.384Z,45.43
2022-09-23T13:05:16.130Z,45.06
2022-09-23T13:08:40.356Z,44.30
2022-09-23T13:12:03.836Z,44.15
2022-09-23T13:15:31.477Z,43.67
2022-09-23T13:18:54.557Z,43.26
2022-09-23T13:22:56.941Z,42.43
2022-09-23T13:26:18.149Z,42.63
2022-09-23T13:29:44.181Z,43.56
2022-09-23T13:33:13.660Z,42.94
2022-09-23T13:36:45.361Z,43.38
2022-09-23T13:40:18.238Z,42.96
2022-09-23T13:43:42.736Z,43.49
2022-09-23T13:47:04.904Z,44.37
2022-09-23T13:50:34.121Z,44.22
2022-09-23T13:53:58.229Z,43.22
2022-09-23T13:57:27.441Z,43.34
2022-09-23T14:00:50.375Z,42.87
2022-09-23T14:04:24.485Z,41.61
2022-09-23T14:07:47.486Z,42.11
2022-09-23T14:11:08.810Z,42.01
2022-09-23T14:14:31.330Z,42.26
2022-09-23T14:17:55.228Z,43.22
2022-09-23T14:21:28.479Z,41.81
2022-09-23T14:24:52.368Z,43.25
2022-09-23T14:28:17.775Z,42.40
2022-09-23T14:31:39.436Z,42.95
2022-09-23T14:35:19.108Z,41.98
2022-09-23T14:38:51.396Z,43.68
2022-09-23T14:42:15.386Z,45.24
2022-09-23T14:45:39.809Z,41.98
2022-09-23T14:49:06.710Z,41.46
2022-09-23T14:52:28.225Z,44.27
2022-09-23T14:55:53.149Z,46.90
2022-09-23T14:59:27.603Z,42.99
2022-09-23T15:03:00.361Z,44.44
2022-09-23T15:06:24.339Z,41.87
2022-09-23T15:09:46.175Z,42.53
2022-09-23T15:13:10.692Z,42.85
2022-09-23T15:16:33.894Z,42.40
2022-09-23T15:19:58.032Z,42.54
2022-09-23T15:23:38.097Z,44.39
2022-09-23T15:26:59.414Z,45.87
2022-09-23T15:30:21.393Z,46.20
2022-09-23T15:33:45.056Z,47.95
2022-09-23T15:37:06.384Z,49.59
2022-09-23T15:40:29.929Z,50.54
2022-09-23T15:43:52.372Z,51.42
2022-09-23T15:47:18.993Z,53.12
2022-09-23T15:50:42.757Z,52.83
2022-09-23T15:54:04.524Z,54.00
2022-09-23T15:57:26.813Z,55.03
2022-09-23T16:00:56.029Z,55.72
2022-09-23T16:04:18.263Z,56.21
2022-09-23T16:07:41.406Z,56.67
2022-09-23T16:11:02.879Z,57.51
2022-09-23T16:14:24.355Z,57.86
2022-09-23T16:17:46.251Z,59.06
2022-09-23T16:21:09.426Z,59.58
2022-09-23T16:24:32.875Z,59.73
2022-09-23T16:27:55.321Z,60.44
2022-09-23T16:31:17.760Z,60.98
2022-09-23T16:34:39.353Z,60.99
2022-09-23T16:38:00.670Z,61.78
2022-09-23T16:41:24.361Z,62.51
2022-09-23T16:44:45.975Z,62.84
2022-09-23T16:48:07.379Z,63.30
2022-09-23T16:51:30.794Z,63.00
2022-09-23T16:54:53.705Z,63.09
2022-09-23T16:58:16.576Z,63.74
2022-09-23T17:01:55.281Z,63.90
2022-09-23T17:05:18.502Z,65.99
2022-09-23T17:08:41.506Z,65.40
2022-09-23T17:12:15.572Z,66.05
2022-09-23T17:15:39.873Z,66.38
2022-09-23T17:19:07.418Z,66.70
2022-09-23T17:22:30.996Z,66.54
2022-09-23T17:25:52.355Z,67.39
2022-09-23T17:29:14.117Z,67.52
2022-09-23T17:32:38.138Z,68.22
2022-09-23T17:36:01.620Z,68.68
2022-09-23T17:39:23.574Z,68.97
2022-09-23T17:42:45.428Z,69.04
2022-09-23T17:46:08.612Z,69.23
2022-09-23T17:49:35.296Z,69.37
2022-09-23T17:52:56.908Z,69.71
2022-09-23T17:56:19.920Z,69.88
2022-09-23T17:59:41.392Z,69.89
2022-09-23T18:03:02.762Z,70.23
2022-09-23T18:06:27.060Z,69.87
2022-09-23T18:09:48.252Z,69.79
2022-09-23T18:13:09.565Z,70.04
2022-09-23T18:16:32.936Z,70.23
2022-09-23T18:19:54.929Z,70.28
2022-09-23T18:23:17.821Z,70.52
2022-09-23T18:26:39.223Z,70.81
2022-09-23T18:30:01.029Z,71.35
2022-09-23T18:33:23.599Z,72.21
2022-09-23T18:36:45.857Z,72.06
2022-09-23T18:40:14.446Z,72.36
2022-09-23T18:43:40.710Z,73.63
2022-09-23T18:47:03.923Z,73.74
2022-09-23T18:50:39.429Z,74.34
2022-09-23T18:54:03.051Z,74.63
2022-09-23T18:57:25.710Z,75.44
2022-09-23T19:00:47.866Z,75.77
2022-09-23T19:04:09.962Z,75.20
2022-09-23T19:07:31.743Z,75.13
2022-09-23T19:10:56.709Z,75.67
2022-09-23T19:14:19.929Z,75.82
2022-09-23T19:17:41.524Z,76.00
2022-09-23T19:21:06.959Z,75.87
2022-09-23T19:24:28.739Z,75.23
2022-09-23T19:27:50.226Z,75.76
2022-09-23T19:31:16.849Z,75.31
2022-09-23T19:34:38.691Z,75.53
2022-09-23T19:38:01.538Z,75.07
2022-09-23T19:41:23.497Z,75.66
2022-09-23T19:44:45.152Z,75.37
2022-09-23T19:48:09.722Z,75.02
2022-09-23T19:51:33.931Z,75.58
2022-09-23T19:54:55.565Z,75.65
2022-09-23T19:58:17.080Z,75.35
2022-09-23T20:01:38.877Z,75.68
2022-09-23T20:05:02.019Z,76.24
2022-09-23T20:08:23.829Z,76.60
2022-09-23T20:11:45.185Z,76.20
2022-09-23T20:15:07.288Z,77.22
2022-09-23T20:18:29.909Z,76.94
2022-09-23T20:22:12.915Z,77.38
2022-09-23T20:25:54.265Z,77.12
2022-09-23T20:29:16.503Z,77.99
2022-09-23T20:32:40.754Z,77.61
2022-09-23T20:36:05.544Z,77.91
2022-09-23T20:39:29.021Z,77.86
2022-09-23T20:42:50.888Z,78.03
2022-09-23T20:46:14.953Z,78.55
2022-09-23T20:49:37.721Z,78.27
2022-09-23T20:52:59.351Z,78.69
2022-09-23T20:56:23.284Z,78.94
2022-09-23T20:59:45.238Z,79.30
2022-09-23T21:03:06.876Z,79.22
2022-09-23T21:06:28.096Z,79.47
2022-09-23T21:09:49.302Z,79.41
2022-09-23T21:13:12.037Z,79.62
2022-09-23T21:16:33.834Z,79.93
2022-09-23T21:19:55.847Z,79.50
2022-09-23T21:23:17.626Z,79.87
2022-09-23T21:26:39.370Z,79.91
2022-09-23T21:30:02.100Z,80.15
2022-09-23T21:33:23.880Z,79.97
2022-09-23T21:36:46.273Z,80.08
2022-09-23T21:40:26.484Z,80.28
2022-09-23T21:43:49.690Z,80.78
2022-09-23T21:47:12.731Z,80.62
2022-09-23T21:50:40.715Z,80.88
2022-09-23T21:54:02.647Z,80.96
2022-09-23T21:57:25.850Z,81.21
2022-09-23T22:00:48.020Z,81.19
2022-09-23T22:04:17.040Z,81.54
2022-09-23T22:07:39.032Z,81.81
2022-09-23T22:11:02.856Z,81.71
2022-09-23T22:14:25.986Z,81.65
2022-09-23T22:17:48.021Z,81.44
2022-09-23T22:21:10.701Z,81.55
2022-09-23T22:24:31.845Z,81.60
2022-09-23T22:28:10.941Z,81.82
2022-09-23T22:31:58.155Z,81.77
2022-09-23T22:35:20.429Z,81.65
2022-09-23T22:38:43.147Z,81.55
2022-09-23T22:42:05.386Z,81.33
2022-09-23T22:45:27.141Z,81.74
2022-09-23T22:48:53.298Z,81.72
2022-09-23T22:52:16.207Z,81.55
2022-09-23T22:55:38.929Z,81.47
2022-09-23T22:59:01.733Z,81.63
2022-09-23T23:02:23.710Z,81.86
2022-09-23T23:05:45.751Z,81.95
2022-09-23T23:09:08.446Z,81.62
2022-09-23T23:12:31.150Z,81.38
2022-09-23T23:15:52.738Z,81.75
2022-09-23T23:19:17.119Z,81.52
2022-09-23T23:22:38.581Z,81.32
2022-09-23T23:26:09.818Z,81.39
2022-09-23T23:29:33.123Z,81.35
2022-09-23T23:32:54.717Z,81.17
2022-09-23T23:36:19.706Z,80.63
2022-09-23T23:39:41.000Z,80.65
2022-09-23T23:43:05.187Z,80.65
2022-09-23T23:46:29.558Z,80.46
2022-09-23T23:49:51.548Z,80.55
2022-09-23T23:53:12.783Z,80.50
2022-09-23T23:56:34.641Z,80.62
2022-09-23T23:59:56.082Z,80.35
